»·PEaware :: SWA3156 KDEN-KTUS

SWA3156 :: KDEN-KTUS

FLIGHT INFORMATION

Flight Status: Arrived
Operator:
Southwest Airlines
More flights by this operator :: More flights under this callsign
Pilot: Daniel W. (24238)
Aircraft: BOEING 737-700
(B737)
More flights by this aircraft type
Origin: KDEN Denver Intl
United States
Destination: KTUS Tucson Intl
United States
More flights between these airports :: More routes between these airports
Route: SUDDZ1 SUDDZ ABQ SSO ZONNA1
File this flight plan on PilotEdge
Remarks: PBN / A1D1O1S2T1 NAV / RNVD1E1A1 RNP10 DAT / 1FANSE2PDC REG / N943WN EET / KZAB0029 CODE / AD1A4E
Altitude:
(Current/Filed)
36,000ft
Speed:
(Current/Filed)
450kts
Departed: 06-Oct-23 03:36 PM
Arrived: 06-Oct-23 05:11 PM
Distance/Time
Traveled:
555nm/1:34
Distance/Time
To Go:
Arrived

Flight Plot

Page will automatically refresh every two minutes.

Flight plan parsing failed; only flown route is shown


Map Options




Map Legend


Flown Route
Filed Route
Departure Airport
Arrival Airport
Navaid (VOR, NDB)
Fix

Horizontal Profiles

Position Reports

Time Latitude Longitude Heading Altitude Ground
Speed
06-Oct-23 14:45 39.862569 -104.677050 1 5365ft 0kts
06-Oct-23 14:46 39.862569 -104.677050 1 5365ft 0kts
06-Oct-23 14:47 39.862569 -104.677050 1 5365ft 0kts
06-Oct-23 14:48 39.862569 -104.677050 1 5365ft 0kts
06-Oct-23 14:49 39.862569 -104.677050 1 5365ft 0kts
06-Oct-23 14:50 39.862569 -104.677050 1 5365ft 0kts
06-Oct-23 14:51 39.862569 -104.677050 1 5365ft 0kts
06-Oct-23 14:52 39.862569 -104.677050 1 5365ft 0kts
06-Oct-23 14:53 39.862569 -104.677050 1 5365ft 0kts
06-Oct-23 14:54 39.862569 -104.677050 1 5365ft 0kts
06-Oct-23 14:55 39.862569 -104.677050 1 5365ft 0kts
06-Oct-23 14:56 39.862569 -104.677050 1 5365ft 0kts
06-Oct-23 14:57 39.862569 -104.677050 1 5365ft 0kts
06-Oct-23 14:58 39.862569 -104.677050 1 5365ft 0kts
06-Oct-23 14:59 39.862569 -104.677050 1 5365ft 0kts
06-Oct-23 14:59 39.862569 -104.677050 1 5365ft 0kts
06-Oct-23 15:01 39.862569 -104.677050 1 5365ft 0kts
06-Oct-23 15:02 39.862569 -104.677050 1 5365ft 0kts
06-Oct-23 15:03 39.862569 -104.677050 1 5365ft 0kts
06-Oct-23 15:04 39.862569 -104.677050 1 5365ft 0kts
06-Oct-23 15:04 39.862569 -104.677050 1 5365ft 0kts
06-Oct-23 15:05 39.862569 -104.677050 1 5365ft 0kts
06-Oct-23 15:07 39.862569 -104.677050 1 5365ft 0kts
06-Oct-23 15:08 39.862569 -104.677050 1 5383ft 0kts
06-Oct-23 15:08 39.862569 -104.677050 1 5383ft 0kts
06-Oct-23 15:09 39.862569 -104.677050 1 5383ft 0kts
06-Oct-23 15:10 39.862569 -104.677050 1 5383ft 0kts
06-Oct-23 15:11 39.862569 -104.677050 1 5383ft 0kts
06-Oct-23 15:13 39.862569 -104.677050 1 5383ft 0kts
06-Oct-23 15:13 39.862569 -104.677050 1 5383ft 0kts
06-Oct-23 15:14 39.862569 -104.677050 1 5383ft 0kts
06-Oct-23 15:15 39.862569 -104.677050 1 5383ft 0kts
06-Oct-23 15:16 39.862569 -104.677050 1 5383ft 0kts
06-Oct-23 15:17 39.862569 -104.677050 1 5383ft 0kts
06-Oct-23 15:18 39.862569 -104.677050 1 5383ft 0kts
06-Oct-23 15:19 39.862569 -104.677050 1 5383ft 0kts
06-Oct-23 15:20 39.862569 -104.677050 1 5383ft 0kts
06-Oct-23 15:21 39.862569 -104.677050 1 5383ft 0kts
06-Oct-23 15:22 39.862569 -104.677050 1 5383ft 0kts
06-Oct-23 15:23 39.862569 -104.677050 1 5383ft 0kts
06-Oct-23 15:24 39.862569 -104.677050 1 5364ft 0kts
06-Oct-23 15:25 39.862569 -104.677050 1 5364ft 0kts
06-Oct-23 15:26 39.862103 -104.677063 1 5363ft 3kts
06-Oct-23 15:27 39.861920 -104.677151 36 5362ft 0kts
06-Oct-23 15:28 39.861920 -104.677151 36 5362ft 0kts
06-Oct-23 15:29 39.861961 -104.676434 98 5364ft 10kts
06-Oct-23 15:30 39.861315 -104.671464 90 5365ft 14kts
06-Oct-23 15:31 39.861309 -104.669283 89 5365ft 0kts
06-Oct-23 15:32 39.861292 -104.666465 90 5365ft 13kts
06-Oct-23 15:33 39.861086 -104.664654 90 5365ft 3kts
06-Oct-23 15:34 39.861068 -104.660826 89 5363ft 12kts
06-Oct-23 15:35 39.846873 -104.660278 180 5363ft 154kts
06-Oct-23 15:36 39.795070 -104.660973 179 7394ft 232kts
06-Oct-23 15:37 39.719192 -104.661888 181 9746ft 286kts
06-Oct-23 15:38 39.632034 -104.664937 190 10054ft 341kts
06-Oct-23 15:39 39.536952 -104.692839 195 13350ft 364kts
06-Oct-23 15:40 39.435693 -104.727963 199 16268ft 387kts
06-Oct-23 15:41 39.328827 -104.766470 199 18980ft 410kts
06-Oct-23 15:42 39.217451 -104.806172 198 21627ft 422kts
06-Oct-23 15:43 39.102324 -104.845625 198 24099ft 435kts
06-Oct-23 15:44 38.985068 -104.891415 199 26044ft 447kts
06-Oct-23 15:45 38.864486 -104.938485 199 27816ft 459kts
06-Oct-23 15:46 38.740363 -104.986445 198 29468ft 471kts
06-Oct-23 15:47 38.613111 -105.035365 198 30924ft 482kts
06-Oct-23 15:48 38.485374 -105.084263 198 32696ft 477kts
06-Oct-23 15:49 38.358132 -105.132828 198 34300ft 475kts
06-Oct-23 15:50 38.232207 -105.180713 198 35649ft 471kts
06-Oct-23 15:51 38.106627 -105.228305 198 36360ft 471kts
06-Oct-23 15:52 37.981832 -105.275421 198 36354ft 464kts
06-Oct-23 15:53 37.859482 -105.325064 204 36334ft 460kts
06-Oct-23 15:54 37.742678 -105.391488 206 36303ft 460kts
06-Oct-23 15:55 37.625856 -105.456261 205 36276ft 460kts
06-Oct-23 15:56 37.507906 -105.520525 205 36253ft 461kts
06-Oct-23 15:57 37.390303 -105.584419 205 36269ft 461kts
06-Oct-23 15:58 37.272539 -105.648198 205 36245ft 461kts
06-Oct-23 15:59 37.154918 -105.711675 205 36191ft 460kts
06-Oct-23 16:00 37.037680 -105.774736 205 36147ft 459kts
06-Oct-23 16:01 36.919945 -105.837845 205 36158ft 459kts
06-Oct-23 16:02 36.802741 -105.900469 205 36167ft 457kts
06-Oct-23 16:03 36.685785 -105.962748 205 36191ft 456kts
06-Oct-23 16:04 36.569358 -106.024543 205 36207ft 455kts
06-Oct-23 16:05 36.452941 -106.086129 205 36185ft 454kts
06-Oct-23 16:06 36.336773 -106.147375 205 36159ft 454kts
06-Oct-23 16:07 36.220324 -106.208577 205 36175ft 453kts
06-Oct-23 16:08 36.104494 -106.269255 205 36274ft 452kts
06-Oct-23 16:09 35.988782 -106.329678 205 36354ft 451kts
06-Oct-23 16:10 35.873205 -106.389834 205 36375ft 451kts
06-Oct-23 16:11 35.757676 -106.449784 205 36307ft 450kts
06-Oct-23 16:12 35.642309 -106.509457 205 36203ft 450kts
06-Oct-23 16:13 35.526801 -106.569017 204 36140ft 450kts
06-Oct-23 16:14 35.411583 -106.628241 204 36169ft 450kts
06-Oct-23 16:15 35.296004 -106.687466 204 36259ft 449kts
06-Oct-23 16:16 35.180629 -106.746410 204 36327ft 449kts
06-Oct-23 16:17 35.065615 -106.805007 205 36320ft 448kts
06-Oct-23 16:18 34.963314 -106.888952 219 36245ft 443kts
06-Oct-23 16:19 34.865182 -106.979766 219 36139ft 443kts
06-Oct-23 16:20 34.766775 -107.069632 219 36102ft 442kts
06-Oct-23 16:21 34.668215 -107.159295 218 36107ft 441kts
06-Oct-23 16:22 34.570022 -107.248369 218 36118ft 440kts
06-Oct-23 16:23 34.472055 -107.336970 218 36132ft 439kts
06-Oct-23 16:24 34.373986 -107.425401 218 36143ft 439kts
06-Oct-23 16:25 34.276153 -107.513351 218 36142ft 438kts
06-Oct-23 16:26 34.178512 -107.600870 218 36158ft 437kts
06-Oct-23 16:27 34.080957 -107.688054 219 36163ft 436kts
06-Oct-23 16:28 33.983457 -107.774935 219 36168ft 435kts
06-Oct-23 16:29 33.885813 -107.861690 219 36171ft 434kts
06-Oct-23 16:30 33.788692 -107.947731 219 36176ft 434kts
06-Oct-23 16:31 33.691646 -108.033457 219 36173ft 433kts
06-Oct-23 16:32 33.594554 -108.118976 219 36177ft 431kts
06-Oct-23 16:33 33.498207 -108.203601 219 36175ft 430kts
06-Oct-23 16:34 33.401949 -108.287910 219 36178ft 428kts
06-Oct-23 16:35 33.305948 -108.371759 219 36167ft 427kts
06-Oct-23 16:36 33.209699 -108.455600 219 36143ft 427kts
06-Oct-23 16:37 33.113996 -108.538714 219 36139ft 425kts
06-Oct-23 16:38 33.018219 -108.621689 219 36109ft 425kts
06-Oct-23 16:39 32.922657 -108.704237 219 36090ft 424kts
06-Oct-23 16:40 32.827111 -108.786545 219 36080ft 424kts
06-Oct-23 16:41 32.731767 -108.868455 219 36062ft 423kts
06-Oct-23 16:42 32.636182 -108.950360 219 36040ft 423kts
06-Oct-23 16:43 32.540731 -109.031932 219 35834ft 425kts
06-Oct-23 16:44 32.443638 -109.114701 217 32672ft 434kts
06-Oct-23 16:45 32.346599 -109.197172 217 30029ft 423kts
06-Oct-23 16:46 32.267969 -109.292307 250 27663ft 398kts
06-Oct-23 16:47 32.252310 -109.423279 263 26113ft 407kts
06-Oct-23 16:48 32.239600 -109.554438 262 24569ft 397kts
06-Oct-23 16:49 32.226395 -109.683310 262 22955ft 393kts
06-Oct-23 16:50 32.213363 -109.809374 262 21432ft 383kts
06-Oct-23 16:51 32.200509 -109.934059 263 19757ft 383kts
06-Oct-23 16:52 32.187824 -110.057514 263 17935ft 373kts
06-Oct-23 16:53 32.175543 -110.175832 262 16215ft 352kts
06-Oct-23 16:54 32.163812 -110.287859 262 14630ft 341kts
06-Oct-23 16:55 32.161779 -110.399046 273 13978ft 340kts
06-Oct-23 16:56 32.169313 -110.510412 272 13963ft 344kts
06-Oct-23 16:57 32.175758 -110.623654 271 13960ft 346kts
06-Oct-23 16:58 32.181968 -110.737081 271 13976ft 345kts
06-Oct-23 16:59 32.190390 -110.849870 288 13963ft 350kts
06-Oct-23 17:00 32.251406 -110.935850 305 13819ft 319kts
06-Oct-23 17:01 32.301490 -111.016797 303 12592ft 301kts
06-Oct-23 17:02 32.349629 -111.096653 303 11117ft 296kts
06-Oct-23 17:03 32.377825 -111.181778 248 9349ft 283kts
06-Oct-23 17:04 32.315497 -111.204875 140 7074ft 269kts
06-Oct-23 17:05 32.267946 -111.142263 147 6114ft 248kts
06-Oct-23 17:06 32.232946 -111.076597 134 5017ft 234kts
06-Oct-23 17:07 32.192022 -111.028449 133 4420ft 190kts
06-Oct-23 17:08 32.159217 -110.989991 133 3660ft 148kts
06-Oct-23 17:09 32.129846 -110.955479 134 2830ft 144kts
06-Oct-23 17:10 32.111561 -110.933864 120 2617ft 20kts
06-Oct-23 17:11 32.113648 -110.934053 315 2612ft 13kts
06-Oct-23 17:12 32.117568 -110.938072 18 2590ft 12kts
06-Oct-23 17:13 32.118811 -110.937649 61 2592ft 0kts
06-Oct-23 17:14 32.118811 -110.937649 61 2592ft 0kts
06-Oct-23 17:15 32.118811 -110.937649 61 2592ft 0kts
06-Oct-23 17:16 32.118811 -110.937649 61 2592ft 0kts

Navigation Log

Ident Type
Flight plan parsing failed, navigation log unavailable